createdAt,value
2022-08-09T00:01:57.643Z,98844.44
2022-08-09T00:04:34.935Z,98847.94
2022-08-09T00:07:07.806Z,98846.53
2022-08-09T00:09:44.385Z,98845.06
2022-08-09T00:12:15.537Z,98840.25
2022-08-09T00:14:56.706Z,98844.06
2022-08-09T00:18:05.457Z,98842.34
2022-08-09T00:20:17.494Z,98841.16
2022-08-09T00:22:47.866Z,98848.56
2022-08-09T00:25:23.129Z,98848.63
2022-08-09T00:27:56.252Z,98854.38
2022-08-09T00:30:26.849Z,98850.91
2022-08-09T00:32:56.867Z,98843.53
2022-08-09T00:35:29.637Z,98853.50
2022-08-09T00:38:13.960Z,98853.38
2022-08-09T00:40:52.717Z,98851.50
2022-08-09T00:44:11.019Z,98853.88
2022-08-09T00:46:28.462Z,98849.13
2022-08-09T00:49:03.904Z,98850.59
2022-08-09T00:51:42.715Z,98854.66
2022-08-09T00:54:31.415Z,98843.78
2022-08-09T00:57:10.480Z,98853.28
2022-08-09T00:59:46.504Z,98853.91
2022-08-09T01:02:22.058Z,98860.06
2022-08-09T01:05:00.920Z,98852.91
2022-08-09T01:07:59.632Z,98850.03
2022-08-09T01:10:37.041Z,98851.63
2022-08-09T01:13:22.120Z,98849.63
2022-08-09T01:15:55.552Z,98860.44
2022-08-09T01:18:31.540Z,98850.50
2022-08-09T01:21:18.824Z,98856.38
2022-08-09T01:24:05.016Z,98855.63
2022-08-09T01:27:08.747Z,98860.41
2022-08-09T01:29:54.953Z,98861.97
2022-08-09T01:32:34.231Z,98871.00
2022-08-09T01:35:37.891Z,98860.06
2022-08-09T01:38:15.114Z,98862.47
2022-08-09T01:40:53.090Z,98875.03
2022-08-09T01:43:41.927Z,98871.88
2022-08-09T01:46:24.642Z,98868.09
2022-08-09T01:48:59.636Z,98872.47
2022-08-09T01:51:32.117Z,98870.94
2022-08-09T01:54:04.585Z,98872.97
2022-08-09T01:56:36.538Z,98872.03
2022-08-09T01:59:16.102Z,98870.94
2022-08-09T02:01:59.013Z,98877.03
2022-08-09T02:04:32.563Z,98871.94
2022-08-09T02:07:18.488Z,98884.97
2022-08-09T02:10:05.344Z,98887.41
2022-08-09T02:12:37.579Z,98888.91
2022-08-09T02:15:16.850Z,98883.75
2022-08-09T02:18:00.777Z,98888.09
2022-08-09T02:20:43.831Z,98887.34
2022-08-09T02:23:17.985Z,98890.50
2022-08-09T02:25:55.830Z,98885.47
2022-08-09T02:28:30.844Z,98891.38
2022-08-09T02:31:07.475Z,98889.81
2022-08-09T02:34:07.331Z,98896.13
2022-08-09T02:36:37.002Z,98893.38
2022-08-09T02:39:14.429Z,98889.09
2022-08-09T02:41:54.119Z,98897.81
2022-08-09T02:44:30.388Z,98896.59
2022-08-09T02:47:06.445Z,98891.44
2022-08-09T02:49:43.963Z,98893.44
2022-08-09T02:52:18.153Z,98887.06
2022-08-09T02:54:54.036Z,98888.72
2022-08-09T02:57:26.727Z,98887.94
2022-08-09T03:00:25.136Z,98890.31
2022-08-09T03:03:00.372Z,98885.22
2022-08-09T03:05:34.205Z,98887.63
2022-08-09T03:08:05.733Z,98888.81
2022-08-09T03:10:37.456Z,98884.47
2022-08-09T03:13:09.937Z,98883.66
2022-08-09T03:16:06.847Z,98880.91
2022-08-09T03:18:35.656Z,98885.25
2022-08-09T03:21:09.252Z,98879.75
2022-08-09T03:23:39.216Z,98884.50
2022-08-09T03:26:09.605Z,98879.44
2022-08-09T03:28:40.948Z,98885.34
2022-08-09T03:31:22.621Z,98879.81
2022-08-09T03:33:56.430Z,98885.34
2022-08-09T03:36:28.138Z,98893.22
2022-08-09T03:38:59.682Z,98888.47
2022-08-09T03:41:45.985Z,98902.69
2022-08-09T03:44:18.363Z,98896.78
2022-08-09T03:46:48.802Z,98898.38
2022-08-09T03:49:24.059Z,98906.66
2022-08-09T03:52:03.801Z,98907.47
2022-08-09T03:54:38.662Z,98903.47
2022-08-09T03:57:18.149Z,98904.28
2022-08-09T03:59:54.783Z,98904.31
2022-08-09T04:02:30.171Z,98900.38
2022-08-09T04:05:06.362Z,98904.69
2022-08-09T04:07:53.615Z,98901.53
2022-08-09T04:10:29.133Z,98904.31
2022-08-09T04:13:04.494Z,98909.81
2022-08-09T04:15:52.139Z,98903.50
2022-08-09T04:18:25.097Z,98910.97
2022-08-09T04:20:57.699Z,98912.16
2022-08-09T04:23:27.520Z,98909.44
2022-08-09T04:25:57.818Z,98917.66
2022-08-09T04:28:31.488Z,98917.69
2022-08-09T04:31:05.815Z,98917.66
2022-08-09T04:33:52.684Z,98927.50
2022-08-09T04:36:30.890Z,98931.03
2022-08-09T04:39:02.774Z,98932.63
2022-08-09T04:41:43.644Z,98938.13
2022-08-09T04:44:14.413Z,98940.88
2022-08-09T04:46:58.733Z,98949.56
2022-08-09T04:49:52.559Z,98948.41
2022-08-09T04:52:28.023Z,98950.75
2022-08-09T04:54:59.485Z,98959.03
2022-08-09T04:57:59.411Z,98959.06
2022-08-09T05:00:20.444Z,98961.03
2022-08-09T05:02:52.729Z,98974.81
2022-08-09T05:05:31.903Z,98959.06
2022-08-09T05:08:15.574Z,98971.22
2022-08-09T05:10:47.219Z,98966.53
2022-08-09T05:13:17.259Z,98979.16
2022-08-09T05:15:48.411Z,98977.59
2022-08-09T05:18:39.876Z,98976.00
2022-08-09T05:21:24.563Z,98976.41
2022-08-09T05:24:04.071Z,98977.59
2022-08-09T05:26:45.624Z,98982.72
2022-08-09T05:29:21.735Z,98985.47
2022-08-09T05:31:58.404Z,98979.56
2022-08-09T05:34:31.142Z,98988.22
2022-08-09T05:37:06.448Z,98986.63
2022-08-09T05:39:43.627Z,98995.66
2022-08-09T05:42:17.483Z,98999.19
2022-08-09T05:44:52.335Z,98990.09
2022-08-09T05:47:23.186Z,98998.38
2022-08-09T05:50:30.836Z,98986.13
2022-08-09T05:52:44.616Z,99001.09
2022-08-09T05:55:26.385Z,99001.06
2022-08-09T05:57:58.334Z,98998.66
2022-08-09T06:00:30.392Z,98993.84
2022-08-09T06:03:00.658Z,98995.44
2022-08-09T06:05:57.494Z,98997.75
2022-08-09T06:08:24.512Z,99002.78
2022-08-09T06:10:59.219Z,99005.47
2022-08-09T06:13:33.948Z,99014.09
2022-08-09T06:16:04.666Z,99007.63
2022-08-09T06:18:36.491Z,99013.13
2022-08-09T06:21:08.232Z,99010.19
2022-08-09T06:23:57.302Z,99011.38
2022-08-09T06:26:31.449Z,99002.16
2022-08-09T06:29:05.251Z,99009.91
2022-08-09T06:31:39.828Z,99016.53
2022-08-09T06:34:29.845Z,99008.09
2022-08-09T06:37:00.807Z,99009.31
2022-08-09T06:39:48.831Z,99009.63
2022-08-09T06:42:28.548Z,99019.66
2022-08-09T06:45:20.471Z,99022.16
2022-08-09T06:48:00.496Z,99017.97
2022-08-09T06:50:31.886Z,99023.66
2022-08-09T06:53:01.876Z,99021.09
2022-08-09T06:55:33.306Z,99021.75
2022-08-09T06:58:05.653Z,99026.47
2022-08-09T07:00:51.427Z,99021.91
2022-08-09T07:03:28.410Z,99031.19
2022-08-09T07:06:03.998Z,99030.31
2022-08-09T07:08:37.258Z,99027.56
2022-08-09T07:11:12.620Z,99028.78
2022-08-09T07:14:05.187Z,99027.16
2022-08-09T07:16:41.533Z,99039.00
2022-08-09T07:19:23.368Z,99031.50
2022-08-09T07:21:57.527Z,99041.19
2022-08-09T07:24:31.438Z,99040.19
2022-08-09T07:27:04.243Z,99045.84
2022-08-09T07:29:43.632Z,99042.41
2022-08-09T07:32:16.340Z,99042.44
2022-08-09T07:34:46.952Z,99042.47
2022-08-09T07:37:22.143Z,99042.25
2022-08-09T07:39:51.955Z,99043.94
2022-08-09T07:42:32.570Z,99046.16
2022-08-09T07:45:14.977Z,99045.06
2022-08-09T07:48:00.580Z,99047.56
2022-08-09T07:50:34.983Z,99046.19
2022-08-09T07:53:06.860Z,99042.44
2022-08-09T07:55:41.707Z,99038.97
2022-08-09T07:58:27.006Z,99048.31
2022-08-09T08:01:06.389Z,99048.44
2022-08-09T08:03:40.828Z,99044.69
2022-08-09T08:06:14.408Z,99043.69
2022-08-09T08:09:03.725Z,99045.97
2022-08-09T08:12:24.923Z,99043.16
2022-08-09T08:14:25.784Z,99038.69
2022-08-09T08:17:00.723Z,99048.06
2022-08-09T08:19:37.662Z,99045.00
2022-08-09T08:22:08.189Z,99045.00
2022-08-09T08:24:40.698Z,99043.34
2022-08-09T08:27:16.723Z,99046.88
2022-08-09T08:29:49.988Z,99041.13
2022-08-09T08:32:29.004Z,99043.22
2022-08-09T08:34:59.444Z,99050.59
2022-08-09T08:37:41.114Z,99039.81
2022-08-09T08:40:13.588Z,99036.34
2022-08-09T08:42:47.434Z,99047.72
2022-08-09T08:45:19.353Z,99042.16
2022-08-09T08:48:10.598Z,99041.97
2022-08-09T08:50:51.962Z,99042.47
2022-08-09T08:53:22.455Z,99045.94
2022-08-09T08:55:52.569Z,99042.28
2022-08-09T08:58:27.113Z,99049.72
2022-08-09T09:00:58.568Z,99037.44
2022-08-09T09:03:38.244Z,99044.13
2022-08-09T09:06:09.581Z,99045.28
2022-08-09T09:08:42.879Z,99039.34
2022-08-09T09:11:17.465Z,99044.31
2022-08-09T09:13:57.999Z,99045.31
2022-08-09T09:16:33.807Z,99043.13
2022-08-09T09:19:40.423Z,99031.47
2022-08-09T09:22:11.876Z,99037.13
2022-08-09T09:24:44.666Z,99026.81
2022-08-09T09:28:02.998Z,99021.63
2022-08-09T09:30:39.987Z,99026.22
2022-08-09T09:33:15.598Z,99026.50
2022-08-09T09:36:01.508Z,99030.84
2022-08-09T09:38:44.670Z,99025.22
2022-08-09T09:41:15.612Z,99018.25
2022-08-09T09:44:12.100Z,99020.22
2022-08-09T09:46:42.286Z,99023.97
2022-08-09T09:49:15.353Z,99020.84
2022-08-09T09:51:51.246Z,99022.00
2022-08-09T09:54:22.776Z,99014.47
2022-08-09T09:58:01.745Z,99017.59
2022-08-09T09:59:45.832Z,99010.72
2022-08-09T10:02:23.186Z,99017.50
2022-08-09T10:05:11.692Z,99022.72
2022-08-09T10:08:11.006Z,99017.03
2022-08-09T10:10:35.505Z,99013.03
2022-08-09T10:13:06.184Z,99015.78
2022-08-09T10:16:08.873Z,99010.72
2022-08-09T10:18:40.676Z,99010.25
2022-08-09T10:21:21.201Z,99003.34
2022-08-09T10:23:53.692Z,99003.78
2022-08-09T10:26:26.833Z,99000.28
2022-08-09T10:29:21.375Z,99014.56
2022-08-09T10:34:40.492Z,99004.38
2022-08-09T10:37:13.866Z,98998.53
2022-08-09T10:39:49.241Z,98996.28
2022-08-09T10:42:20.054Z,98991.72
2022-08-09T10:44:52.940Z,98980.22
2022-08-09T10:48:17.295Z,98994.16
2022-08-09T10:50:54.523Z,98994.47
2022-08-09T10:53:46.939Z,98993.28
2022-08-09T10:56:28.443Z,98987.41
2022-08-09T10:59:01.632Z,98969.88
2022-08-09T11:03:46.751Z,98988.31
2022-08-09T11:04:32.669Z,98986.66
2022-08-09T11:07:54.946Z,98989.53
2022-08-09T11:11:08.529Z,98983.88
2022-08-09T11:13:50.847Z,98982.53
2022-08-09T11:16:40.870Z,98969.41
2022-08-09T11:19:11.989Z,98978.47
2022-08-09T11:22:04.792Z,98977.19
2022-08-09T11:25:09.117Z,98961.81
2022-08-09T11:28:05.077Z,98967.38
2022-08-09T11:30:38.601Z,98967.28
2022-08-09T11:33:34.272Z,98977.84
2022-08-09T11:36:04.525Z,98971.59
2022-08-09T11:38:41.390Z,98963.50
2022-08-09T11:41:37.488Z,98968.19
2022-08-09T11:44:08.785Z,98955.19
2022-08-09T11:46:57.266Z,98963.88
2022-08-09T11:50:55.820Z,98957.16
2022-08-09T11:54:01.123Z,98963.25
2022-08-09T11:56:41.469Z,98952.84
2022-08-09T11:59:14.365Z,98952.22
2022-08-09T12:02:34.457Z,98951.69
2022-08-09T12:04:37.980Z,98947.03
2022-08-09T12:07:08.888Z,98949.22
2022-08-09T12:09:39.467Z,98937.25
2022-08-09T12:12:20.509Z,98932.69
2022-08-09T12:15:08.123Z,98940.81
2022-08-09T12:17:45.717Z,98931.31
2022-08-09T12:20:24.186Z,98936.75
2022-08-09T12:22:57.027Z,98927.88
2022-08-09T12:25:36.681Z,98938.50
2022-08-09T12:28:59.681Z,98938.28
2022-08-09T12:31:03.036Z,98928.13
2022-08-09T12:33:58.366Z,98935.59
2022-08-09T12:36:36.118Z,98940.84
2022-08-09T12:39:16.726Z,98931.03
2022-08-09T12:41:46.424Z,98925.84
2022-08-09T12:44:16.738Z,98932.94
2022-08-09T12:46:54.487Z,98927.13
2022-08-09T12:49:24.331Z,98931.84
2022-08-09T12:52:03.432Z,98931.69
2022-08-09T12:55:03.303Z,98926.53
2022-08-09T12:57:42.889Z,98922.81
2022-08-09T13:00:25.425Z,98919.53
2022-08-09T13:02:58.498Z,98913.91
2022-08-09T13:05:35.550Z,98914.03
2022-08-09T13:08:39.830Z,98904.97
2022-08-09T13:11:23.033Z,98916.16
2022-08-09T13:14:38.698Z,98904.72
2022-08-09T13:16:51.442Z,98908.47
2022-08-09T13:20:07.342Z,98896.69
2022-08-09T13:22:35.429Z,98898.75
2022-08-09T13:25:14.157Z,98902.78
2022-08-09T13:27:48.620Z,98889.97
2022-08-09T13:30:51.347Z,98895.41
2022-08-09T13:33:36.114Z,98897.75
2022-08-09T13:36:39.361Z,98888.97
2022-08-09T13:41:50.418Z,98883.47
2022-08-09T13:42:03.986Z,98886.19
2022-08-09T13:44:34.553Z,98872.63
2022-08-09T13:47:16.477Z,98876.41
2022-08-09T13:49:57.532Z,98867.72
2022-08-09T13:52:31.252Z,98876.09
2022-08-09T13:55:07.429Z,98875.16
2022-08-09T13:57:56.309Z,98874.28
2022-08-09T14:00:30.345Z,98875.44
2022-08-09T14:03:04.649Z,98871.28
2022-08-09T14:05:58.604Z,98877.69
2022-08-09T14:08:31.876Z,98875.78
2022-08-09T14:11:01.833Z,98873.44
2022-08-09T14:14:22.071Z,98872.44
2022-08-09T14:16:28.630Z,98880.63
2022-08-09T14:18:59.539Z,98878.59
2022-08-09T14:21:32.196Z,98872.97
2022-08-09T14:24:05.480Z,98866.22
2022-08-09T14:26:40.752Z,98859.38
2022-08-09T14:30:04.244Z,98862.88
2022-08-09T14:32:11.264Z,98871.47
2022-08-09T14:34:43.198Z,98851.09
2022-08-09T14:37:14.934Z,98859.72
2022-08-09T14:39:48.714Z,98862.53
2022-08-09T14:42:31.879Z,98852.06
2022-08-09T14:46:45.958Z,98859.06
2022-08-09T14:48:05.270Z,98863.94
2022-08-09T14:50:38.261Z,98852.63
2022-08-09T14:53:11.306Z,98848.97
2022-08-09T14:55:50.063Z,98853.38
2022-08-09T14:58:20.471Z,98850.47
2022-08-09T15:00:53.648Z,98854.34
2022-08-09T15:03:28.049Z,98857.34
2022-08-09T15:06:01.535Z,98854.19
2022-08-09T15:08:34.443Z,98845.78
2022-08-09T15:11:04.929Z,98846.97
2022-08-09T15:13:56.152Z,98833.22
2022-08-09T15:16:30.565Z,98841.91
2022-08-09T15:19:05.847Z,98836.09
2022-08-09T15:22:01.230Z,98843.16
2022-08-09T15:24:32.217Z,98843.44
2022-08-09T15:27:02.182Z,98832.63
2022-08-09T15:30:59.835Z,98847.97
2022-08-09T15:32:29.405Z,98842.66
2022-08-09T15:35:01.996Z,98827.59
2022-08-09T15:37:57.322Z,98830.69
2022-08-09T15:40:43.897Z,98829.53
2022-08-09T15:43:14.741Z,98833.81
2022-08-09T15:46:07.775Z,98833.41
2022-08-09T15:48:37.067Z,98827.59
2022-08-09T15:51:30.016Z,98826.78
2022-08-09T15:54:04.321Z,98842.00
2022-08-09T15:56:38.355Z,98819.34
2022-08-09T15:59:08.141Z,98818.75
2022-08-09T16:01:37.816Z,98840.31
2022-08-09T16:04:13.512Z,98832.25
2022-08-09T16:06:44.751Z,98823.19
2022-08-09T16:09:32.421Z,98824.47
2022-08-09T16:12:12.886Z,98837.94
2022-08-09T16:14:45.889Z,98833.66
2022-08-09T16:17:16.923Z,98835.91
2022-08-09T16:20:08.821Z,98834.84
2022-08-09T16:22:42.475Z,98827.47
2022-08-09T16:25:18.280Z,98827.47
2022-08-09T16:28:07.657Z,98816.31
2022-08-09T16:30:44.650Z,98826.69
2022-08-09T16:33:23.884Z,98823.00
2022-08-09T16:36:01.946Z,98820.06
2022-08-09T16:38:38.265Z,98821.34
2022-08-09T16:41:08.274Z,98821.59
2022-08-09T16:43:47.153Z,98825.09
2022-08-09T16:46:18.577Z,98823.75
2022-08-09T16:48:59.976Z,98822.75
2022-08-09T16:51:37.483Z,98830.91
2022-08-09T16:54:25.942Z,98825.56
2022-08-09T16:56:57.338Z,98836.22
2022-08-09T16:59:28.051Z,98828.38
2022-08-09T17:02:04.702Z,98830.66
2022-08-09T17:04:35.317Z,98838.03
2022-08-09T17:08:41.664Z,98835.09
2022-08-09T17:10:03.892Z,98828.47
2022-08-09T17:12:34.265Z,98822.09
2022-08-09T17:15:30.761Z,98827.88
2022-08-09T17:18:00.605Z,98826.88
2022-08-09T17:20:35.653Z,98829.88
2022-08-09T17:23:10.385Z,98834.75
2022-08-09T17:25:45.062Z,98838.03
2022-08-09T17:28:22.981Z,98831.06
2022-08-09T17:30:53.057Z,98837.34
2022-08-09T17:33:23.328Z,98835.16
2022-08-09T17:35:53.653Z,98831.56
2022-08-09T17:38:32.253Z,98833.75
2022-08-09T17:41:04.902Z,98831.78
2022-08-09T17:43:37.212Z,98841.34
2022-08-09T17:46:09.966Z,98840.59
2022-08-09T17:48:52.045Z,98843.59
2022-08-09T17:51:23.223Z,98853.41
2022-08-09T17:53:57.120Z,98851.72
2022-08-09T17:56:35.673Z,98848.50
2022-08-09T17:59:09.315Z,98859.88
2022-08-09T18:02:07.348Z,98854.13
2022-08-09T18:04:30.947Z,98857.88
2022-08-09T18:07:04.585Z,98853.53
2022-08-09T18:09:41.655Z,98855.09
2022-08-09T18:12:17.735Z,98862.28
2022-08-09T18:14:54.570Z,98856.19
2022-08-09T18:17:26.865Z,98861.19
2022-08-09T18:21:00.240Z,98864.47
2022-08-09T18:23:07.294Z,98861.63
2022-08-09T18:25:52.453Z,98870.50
2022-08-09T18:30:41.162Z,98866.59
2022-08-09T18:31:24.665Z,98867.53
2022-08-09T18:33:54.862Z,98867.19
2022-08-09T18:36:25.670Z,98871.88
2022-08-09T18:39:02.117Z,98873.25
2022-08-09T18:41:37.216Z,98876.03
2022-08-09T18:44:16.934Z,98869.63
2022-08-09T18:47:05.067Z,98880.84
2022-08-09T18:49:43.513Z,98887.00
2022-08-09T18:52:18.834Z,98889.78
2022-08-09T18:54:54.960Z,98888.50
2022-08-09T18:57:42.822Z,98890.19
2022-08-09T19:00:20.294Z,98895.13
2022-08-09T19:02:51.030Z,98899.78
2022-08-09T19:05:49.316Z,98895.50
2022-08-09T19:08:18.573Z,98903.41
2022-08-09T19:10:50.768Z,98904.94
2022-08-09T19:13:38.521Z,98902.63
2022-08-09T19:16:13.418Z,98902.84
2022-08-09T19:18:50.814Z,98920.09
2022-08-09T19:21:52.051Z,98915.09
2022-08-09T19:24:33.162Z,98915.34
2022-08-09T19:27:01.404Z,98921.19
2022-08-09T19:29:38.265Z,98931.47
2022-08-09T19:32:29.507Z,98921.19
2022-08-09T19:35:01.421Z,98928.16
2022-08-09T19:37:41.245Z,98932.31
2022-08-09T19:40:22.628Z,98925.47
2022-08-09T19:42:52.711Z,98927.94
2022-08-09T19:45:25.229Z,98928.75
2022-08-09T19:48:09.512Z,98929.66
2022-08-09T19:50:49.534Z,98932.56
2022-08-09T19:53:21.564Z,98926.63
2022-08-09T19:56:03.261Z,98930.03
2022-08-09T19:58:36.492Z,98927.69
2022-08-09T20:01:08.940Z,98927.00
2022-08-09T20:04:14.536Z,98924.81
2022-08-09T20:06:31.542Z,98922.25
2022-08-09T20:09:01.574Z,98923.13
2022-08-09T20:11:33.722Z,98935.00
2022-08-09T20:14:15.248Z,98930.97
2022-08-09T20:16:53.843Z,98930.19
2022-08-09T20:19:48.704Z,98937.91
2022-08-09T20:22:14.954Z,98927.19
2022-08-09T20:24:53.416Z,98934.56
2022-08-09T20:27:24.475Z,98929.66
2022-08-09T20:30:01.079Z,98932.56
2022-08-09T20:32:35.404Z,98924.31
2022-08-09T20:35:07.128Z,98929.44
2022-08-09T20:38:24.059Z,98927.56
2022-08-09T20:40:28.209Z,98936.50
2022-08-09T20:43:09.721Z,98929.13
2022-08-09T20:45:56.752Z,98930.59
2022-08-09T20:48:31.107Z,98925.00
2022-08-09T20:51:02.899Z,98932.38
2022-08-09T20:53:37.319Z,98932.25
2022-08-09T20:56:20.939Z,98933.59
2022-08-09T20:58:58.765Z,98935.75
2022-08-09T21:01:35.120Z,98944.22
2022-08-09T21:05:55.219Z,98935.41
2022-08-09T21:07:13.789Z,98928.25
2022-08-09T21:09:56.730Z,98949.91
2022-08-09T21:15:23.860Z,98944.31
2022-08-09T21:18:21.908Z,98952.56
2022-08-09T21:20:57.230Z,98954.78
2022-08-09T21:23:47.843Z,98957.00
2022-08-09T21:26:17.088Z,98958.97
2022-08-09T21:28:56.315Z,98965.91
2022-08-09T21:31:48.189Z,98962.97
2022-08-09T21:34:28.701Z,98955.13
2022-08-09T21:37:01.615Z,98968.22
2022-08-09T21:39:42.238Z,98961.16
2022-08-09T21:42:13.072Z,98959.09
2022-08-09T21:44:43.661Z,98955.63
2022-08-09T21:47:18.158Z,98958.22
2022-08-09T21:49:49.728Z,98965.41
2022-08-09T21:52:24.106Z,98961.81
2022-08-09T21:55:03.476Z,98964.75
2022-08-09T21:57:39.287Z,98951.84
2022-08-09T22:00:32.443Z,98966.84
2022-08-09T22:03:05.582Z,98967.63
2022-08-09T22:05:42.251Z,98970.06
2022-08-09T22:08:16.669Z,98963.22
2022-08-09T22:11:49.237Z,98962.00
2022-08-09T22:13:38.125Z,98964.44
2022-08-09T22:16:09.598Z,98968.06
2022-08-09T22:18:53.407Z,98965.97
2022-08-09T22:21:45.205Z,98962.84
2022-08-09T22:24:21.120Z,98964.75
2022-08-09T22:26:55.019Z,98958.38
2022-08-09T22:29:32.246Z,98964.41
2022-08-09T22:32:30.119Z,98967.19
2022-08-09T22:35:06.621Z,98968.84
2022-08-09T22:38:03.449Z,98967.53
2022-08-09T22:40:40.177Z,98972.31
2022-08-09T22:44:03.749Z,98961.41
2022-08-09T22:48:10.059Z,98966.31
2022-08-09T22:48:59.900Z,98972.72
2022-08-09T22:51:31.709Z,98966.91
2022-08-09T22:54:03.215Z,98970.25
2022-08-09T22:56:35.964Z,98977.63
2022-08-09T22:59:58.317Z,98981.69
2022-08-09T23:01:59.446Z,98979.47
2022-08-09T23:04:32.641Z,98976.56
2022-08-09T23:07:16.280Z,98973.59
2022-08-09T23:09:46.283Z,98976.22
2022-08-09T23:12:18.582Z,98968.28
2022-08-09T23:14:48.263Z,98966.00
2022-08-09T23:17:24.741Z,98973.28
2022-08-09T23:20:06.654Z,98967.03
2022-08-09T23:22:38.037Z,98964.84
2022-08-09T23:25:09.034Z,98959.16
2022-08-09T23:28:14.131Z,98964.72
2022-08-09T23:30:31.134Z,98962.56
2022-08-09T23:33:00.861Z,98951.44
2022-08-09T23:35:30.536Z,98949.03
2022-08-09T23:38:20.787Z,98954.72
2022-08-09T23:40:52.834Z,98956.63
2022-08-09T23:43:25.381Z,98951.81
2022-08-09T23:45:55.096Z,98947.69
2022-08-09T23:48:24.862Z,98949.31
2022-08-09T23:50:54.696Z,98949.56
2022-08-09T23:53:24.495Z,98948.56
2022-08-09T23:55:58.744Z,98951.81
2022-08-09T23:58:31.145Z,98961.97
